createdAt,value
2022-12-18T00:01:55.655Z,70.68
2022-12-18T00:04:30.061Z,70.94
2022-12-18T00:07:02.948Z,70.90
2022-12-18T00:09:40.317Z,70.07
2022-12-18T00:14:48.689Z,70.50
2022-12-18T00:17:22.040Z,70.92
2022-12-18T00:19:56.418Z,71.04
2022-12-18T00:22:29.544Z,71.30
2022-12-18T00:25:02.387Z,70.88
2022-12-18T00:27:36.470Z,70.86
2022-12-18T00:30:10.418Z,70.85
2022-12-18T00:32:43.291Z,71.17
2022-12-18T00:35:17.704Z,71.30
2022-12-18T00:37:50.602Z,71.86
2022-12-18T00:40:23.514Z,71.67
2022-12-18T00:42:58.289Z,71.03
2022-12-18T00:45:33.090Z,71.14
2022-12-18T00:48:06.661Z,71.06
2022-12-18T00:50:40.853Z,71.21
2022-12-18T00:53:14.147Z,71.25
2022-12-18T00:55:48.311Z,71.02
2022-12-18T00:58:21.151Z,71.11
2022-12-18T01:00:54.117Z,71.16
2022-12-18T01:03:27.172Z,71.56
2022-12-18T01:06:01.464Z,71.59
2022-12-18T01:08:34.499Z,71.12
2022-12-18T01:11:10.426Z,70.77
2022-12-18T01:13:44.472Z,70.78
2022-12-18T01:16:18.740Z,70.71
2022-12-18T01:18:54.590Z,70.59
2022-12-18T01:21:29.008Z,71.07
2022-12-18T01:24:01.817Z,70.88
2022-12-18T01:26:34.637Z,71.01
2022-12-18T01:29:07.432Z,70.92
2022-12-18T01:31:40.441Z,71.08
2022-12-18T01:34:13.282Z,70.82
2022-12-18T01:36:47.463Z,70.70
2022-12-18T01:39:20.851Z,71.01
2022-12-18T01:42:10.383Z,70.59
2022-12-18T01:44:59.080Z,70.45
2022-12-18T01:47:37.295Z,70.44
2022-12-18T01:50:15.193Z,70.84
2022-12-18T01:52:54.079Z,70.58
2022-12-18T01:55:30.040Z,70.84
2022-12-18T01:58:03.267Z,70.73
2022-12-18T02:00:36.301Z,70.65
2022-12-18T02:03:09.189Z,70.67
2022-12-18T02:05:49.138Z,70.32
2022-12-18T02:08:28.618Z,70.26
2022-12-18T02:11:09.497Z,70.09
2022-12-18T02:13:48.684Z,69.98
2022-12-18T02:16:26.069Z,69.79
2022-12-18T02:19:02.676Z,70.05
2022-12-18T02:21:48.245Z,69.54
2022-12-18T02:24:32.800Z,69.55
2022-12-18T02:27:08.778Z,69.95
2022-12-18T02:29:46.381Z,69.57
2022-12-18T02:32:25.420Z,69.65
2022-12-18T02:34:59.440Z,70.25
2022-12-18T02:37:34.595Z,69.85
2022-12-18T02:40:09.902Z,70.32
2022-12-18T02:42:44.133Z,70.04
2022-12-18T02:45:17.162Z,70.00
2022-12-18T02:47:52.176Z,70.45
2022-12-18T02:50:33.449Z,70.31
2022-12-18T02:53:15.939Z,70.01
2022-12-18T02:55:58.282Z,70.14
2022-12-18T02:58:42.447Z,69.93
2022-12-18T03:01:21.241Z,69.87
2022-12-18T03:03:58.724Z,70.14
2022-12-18T03:06:37.102Z,69.83
2022-12-18T03:09:12.896Z,70.04
2022-12-18T03:12:08.097Z,69.88
2022-12-18T03:14:45.314Z,70.05
2022-12-18T03:17:22.761Z,70.17
2022-12-18T03:19:59.179Z,70.02
2022-12-18T03:22:35.428Z,69.77
2022-12-18T03:25:11.672Z,70.22
2022-12-18T03:27:48.538Z,70.15
2022-12-18T03:30:23.271Z,70.05
2022-12-18T03:33:03.926Z,70.07
2022-12-18T03:35:41.415Z,70.03
2022-12-18T03:38:14.968Z,70.14
2022-12-18T03:40:58.732Z,69.92
2022-12-18T03:43:42.638Z,69.67
2022-12-18T03:46:25.222Z,70.20
2022-12-18T03:49:07.911Z,70.20
2022-12-18T03:51:48.195Z,70.06
2022-12-18T03:54:21.888Z,69.92
2022-12-18T03:57:02.927Z,70.20
2022-12-18T03:59:37.440Z,70.21
2022-12-18T04:02:12.599Z,69.29
2022-12-18T04:04:49.348Z,69.57
2022-12-18T04:07:23.440Z,69.68
2022-12-18T04:10:00.121Z,69.70
2022-12-18T04:12:33.039Z,69.85
2022-12-18T04:15:06.952Z,69.99
2022-12-18T04:17:45.401Z,70.31
2022-12-18T04:20:19.171Z,70.12
2022-12-18T04:22:51.938Z,70.68
2022-12-18T04:25:24.834Z,70.29
2022-12-18T04:27:57.965Z,70.60
2022-12-18T04:30:30.768Z,70.52
2022-12-18T04:33:04.950Z,70.54
2022-12-18T04:35:37.725Z,70.69
2022-12-18T04:38:11.913Z,70.52
2022-12-18T04:40:45.365Z,70.07
2022-12-18T04:43:18.259Z,70.59
2022-12-18T04:45:51.197Z,70.49
2022-12-18T04:48:25.658Z,70.42
2022-12-18T04:50:58.470Z,70.16
2022-12-18T04:53:31.382Z,70.56
2022-12-18T04:56:06.296Z,70.62
2022-12-18T04:58:40.099Z,70.81
2022-12-18T05:01:14.640Z,70.57
2022-12-18T05:03:49.581Z,70.73
2022-12-18T05:06:22.662Z,70.67
2022-12-18T05:08:55.472Z,70.90
2022-12-18T05:11:28.454Z,70.56
2022-12-18T05:14:01.218Z,70.75
2022-12-18T05:16:34.007Z,70.48
2022-12-18T05:19:08.540Z,70.51
2022-12-18T05:21:41.309Z,70.50
2022-12-18T05:24:14.150Z,70.38
2022-12-18T05:26:47.060Z,69.82
2022-12-18T05:29:19.972Z,69.98
2022-12-18T05:31:52.898Z,70.10
2022-12-18T05:34:27.147Z,70.00
2022-12-18T05:37:00.012Z,70.33
2022-12-18T05:39:32.764Z,70.32
2022-12-18T05:42:05.691Z,70.41
2022-12-18T05:44:38.526Z,70.17
2022-12-18T05:47:11.541Z,69.72
2022-12-18T05:49:45.769Z,70.27
2022-12-18T05:52:18.611Z,69.91
2022-12-18T05:54:51.487Z,70.16
2022-12-18T05:57:24.303Z,70.48
2022-12-18T05:59:57.156Z,70.56
2022-12-18T06:02:30.044Z,70.43
2022-12-18T06:05:04.596Z,70.45
2022-12-18T06:07:37.391Z,70.46
2022-12-18T06:10:10.480Z,70.03
2022-12-18T06:12:43.314Z,69.86
2022-12-18T06:15:16.302Z,69.89
2022-12-18T06:17:49.983Z,69.57
2022-12-18T06:20:26.905Z,69.25
2022-12-18T06:23:03.305Z,69.60
2022-12-18T06:25:38.794Z,69.59
2022-12-18T06:28:11.546Z,69.74
2022-12-18T06:30:45.473Z,69.55
2022-12-18T06:33:19.040Z,69.64
2022-12-18T06:35:56.548Z,69.81
2022-12-18T06:38:33.600Z,69.28
2022-12-18T06:41:09.114Z,69.86
2022-12-18T06:43:42.568Z,69.92
2022-12-18T06:46:17.023Z,69.53
2022-12-18T06:48:51.281Z,69.46
2022-12-18T06:51:26.692Z,69.50
2022-12-18T06:53:59.644Z,69.54
2022-12-18T06:56:32.723Z,69.90
2022-12-18T06:59:05.516Z,69.98
2022-12-18T07:01:38.573Z,69.75
2022-12-18T07:04:11.519Z,69.54
2022-12-18T07:06:45.772Z,69.69
2022-12-18T07:09:18.605Z,70.04
2022-12-18T07:11:51.383Z,69.71
2022-12-18T07:14:24.253Z,69.69
2022-12-18T07:16:57.114Z,69.78
2022-12-18T07:19:30.087Z,70.23
2022-12-18T07:22:05.346Z,69.73
2022-12-18T07:24:39.384Z,69.81
2022-12-18T07:27:12.264Z,69.95
2022-12-18T07:29:45.064Z,70.12
2022-12-18T07:32:18.232Z,70.03
2022-12-18T07:34:51.225Z,69.84
2022-12-18T07:37:25.475Z,70.58
2022-12-18T07:39:58.354Z,70.60
2022-12-18T07:42:33.971Z,70.67
2022-12-18T07:45:07.794Z,70.77
2022-12-18T07:47:42.231Z,71.07
2022-12-18T07:50:15.261Z,71.11
2022-12-18T07:52:49.764Z,71.28
2022-12-18T07:55:22.543Z,71.54
2022-12-18T07:58:00.726Z,71.55
2022-12-18T08:00:33.901Z,71.60
2022-12-18T08:03:06.794Z,71.33
2022-12-18T08:05:39.786Z,71.14
2022-12-18T08:08:14.056Z,70.74
2022-12-18T08:10:48.203Z,70.71
2022-12-18T08:13:21.257Z,70.75
2022-12-18T08:16:02.401Z,70.59
2022-12-18T08:18:35.835Z,70.61
2022-12-18T08:21:12.652Z,70.47
2022-12-18T08:23:47.508Z,70.53
2022-12-18T08:26:22.091Z,70.32
2022-12-18T08:28:56.502Z,70.85
2022-12-18T08:31:31.418Z,70.51
2022-12-18T08:34:04.423Z,70.52
2022-12-18T08:36:37.456Z,70.21
2022-12-18T08:39:12.294Z,70.39
2022-12-18T08:42:09.863Z,70.41
2022-12-18T08:44:42.223Z,70.70
2022-12-18T08:47:15.110Z,70.54
2022-12-18T08:49:47.945Z,70.46
2022-12-18T08:52:20.720Z,70.57
2022-12-18T08:54:54.843Z,70.46
2022-12-18T08:57:27.660Z,70.29
2022-12-18T09:00:00.498Z,70.32
2022-12-18T09:02:33.456Z,70.52
2022-12-18T09:05:07.229Z,70.70
2022-12-18T09:07:40.044Z,70.68
2022-12-18T09:10:14.349Z,71.07
2022-12-18T09:12:47.137Z,70.95
2022-12-18T09:15:21.073Z,71.06
2022-12-18T09:17:54.941Z,71.18
2022-12-18T09:20:29.403Z,71.05
2022-12-18T09:23:02.189Z,70.99
2022-12-18T09:25:37.874Z,70.91
2022-12-18T09:28:13.878Z,70.76
2022-12-18T09:30:48.335Z,70.42
2022-12-18T09:33:21.232Z,70.58
2022-12-18T09:35:54.112Z,70.65
2022-12-18T09:38:26.983Z,70.40
2022-12-18T09:41:06.888Z,70.25
2022-12-18T09:43:45.986Z,70.04
2022-12-18T09:46:26.519Z,69.78
2022-12-18T09:49:03.403Z,69.89
2022-12-18T09:51:39.610Z,69.74
2022-12-18T09:54:16.362Z,69.18
2022-12-18T09:56:50.698Z,69.12
2022-12-18T09:59:27.526Z,68.86
2022-12-18T10:02:01.523Z,68.73
2022-12-18T10:04:35.177Z,68.91
2022-12-18T10:07:17.121Z,68.32
2022-12-18T10:09:52.911Z,69.06
2022-12-18T10:12:35.315Z,68.63
2022-12-18T10:15:13.926Z,68.27
2022-12-18T10:17:53.870Z,67.81
2022-12-18T10:20:34.236Z,67.84
2022-12-18T10:23:21.049Z,67.78
2022-12-18T10:26:01.915Z,68.13
2022-12-18T10:28:38.937Z,68.21
2022-12-18T10:31:18.125Z,68.77
2022-12-18T10:33:51.369Z,68.28
2022-12-18T10:36:25.906Z,68.61
2022-12-18T10:39:17.694Z,68.57
2022-12-18T10:41:50.811Z,68.77
2022-12-18T10:44:27.197Z,68.12
2022-12-18T10:47:11.689Z,68.29
2022-12-18T10:49:56.087Z,67.90
2022-12-18T10:52:29.653Z,68.48
2022-12-18T10:55:06.144Z,68.46
2022-12-18T10:57:41.488Z,68.41
2022-12-18T11:00:30.681Z,68.13
2022-12-18T11:03:03.700Z,68.17
2022-12-18T11:05:38.037Z,68.36
2022-12-18T11:08:23.745Z,67.56
2022-12-18T11:10:56.621Z,68.63
2022-12-18T11:13:32.053Z,68.47
2022-12-18T11:16:06.708Z,68.82
2022-12-18T11:18:40.102Z,68.29
2022-12-18T11:21:15.608Z,68.40
2022-12-18T11:23:52.779Z,67.92
2022-12-18T11:26:37.169Z,67.72
2022-12-18T11:29:12.561Z,67.84
2022-12-18T11:31:46.870Z,67.99
2022-12-18T11:34:29.487Z,67.83
2022-12-18T11:37:05.949Z,68.13
2022-12-18T11:39:41.714Z,68.46
2022-12-18T11:42:22.205Z,67.68
2022-12-18T11:44:59.452Z,68.49
2022-12-18T11:47:43.697Z,67.59
2022-12-18T11:50:20.427Z,68.17
2022-12-18T11:52:58.195Z,67.98
2022-12-18T11:55:43.567Z,67.43
2022-12-18T11:58:44.553Z,66.62
2022-12-18T12:01:41.977Z,66.41
2022-12-18T12:04:35.880Z,66.44
2022-12-18T12:07:23.377Z,66.61
2022-12-18T12:10:05.421Z,66.98
2022-12-18T12:12:52.437Z,66.69
2022-12-18T12:15:38.968Z,65.91
2022-12-18T12:18:26.901Z,66.71
2022-12-18T12:21:09.476Z,66.29
2022-12-18T12:23:48.112Z,66.47
2022-12-18T12:26:29.732Z,66.67
2022-12-18T12:29:16.618Z,67.18
2022-12-18T12:32:06.476Z,66.36
2022-12-18T12:34:46.313Z,66.77
2022-12-18T12:37:32.372Z,66.81
2022-12-18T12:40:26.830Z,66.34
2022-12-18T12:43:13.766Z,66.44
2022-12-18T12:45:51.541Z,66.51
2022-12-18T12:48:36.535Z,65.81
2022-12-18T12:51:18.307Z,66.30
2022-12-18T12:53:55.628Z,66.57
2022-12-18T12:56:42.106Z,66.45
2022-12-18T12:59:21.294Z,66.09
2022-12-18T13:02:01.758Z,66.18
2022-12-18T13:04:42.051Z,65.66
2022-12-18T13:07:18.242Z,65.44
2022-12-18T13:10:17.550Z,65.25
2022-12-18T13:12:59.261Z,65.26
2022-12-18T13:15:40.030Z,65.63
2022-12-18T13:18:19.204Z,65.59
2022-12-18T13:21:05.700Z,65.92
2022-12-18T13:23:42.981Z,66.08
2022-12-18T13:26:36.294Z,64.91
2022-12-18T13:29:09.468Z,65.89
2022-12-18T13:32:23.257Z,65.51
2022-12-18T13:35:40.378Z,65.87
2022-12-18T13:38:24.915Z,66.69
2022-12-18T13:40:59.684Z,67.00
2022-12-18T13:43:38.295Z,67.39
2022-12-18T13:46:26.437Z,67.28
2022-12-18T13:49:07.758Z,67.14
2022-12-18T13:51:43.844Z,67.24
2022-12-18T13:54:24.454Z,66.81
2022-12-18T13:56:57.397Z,67.64
2022-12-18T13:59:38.071Z,67.37
2022-12-18T14:02:16.646Z,67.13
2022-12-18T14:04:51.567Z,67.43
2022-12-18T14:07:26.262Z,67.41
2022-12-18T14:10:12.562Z,67.42
2022-12-18T14:13:00.934Z,67.60
2022-12-18T14:15:41.248Z,66.78
2022-12-18T14:18:23.930Z,66.82
2022-12-18T14:20:59.577Z,67.46
2022-12-18T14:23:35.441Z,67.06
2022-12-18T14:26:24.933Z,66.38
2022-12-18T14:28:57.778Z,66.85
2022-12-18T14:31:33.393Z,66.94
2022-12-18T14:34:06.305Z,66.97
2022-12-18T14:36:40.904Z,67.04
2022-12-18T14:39:19.688Z,66.39
2022-12-18T14:41:52.705Z,67.08
2022-12-18T14:44:28.578Z,67.22
2022-12-18T14:47:16.532Z,66.60
2022-12-18T14:49:50.060Z,66.89
2022-12-18T14:52:29.421Z,67.06
2022-12-18T14:55:02.344Z,67.12
2022-12-18T14:57:41.378Z,67.11
2022-12-18T15:00:19.569Z,66.80
2022-12-18T15:02:56.854Z,67.00
2022-12-18T15:05:31.542Z,67.12
2022-12-18T15:08:04.924Z,67.56
2022-12-18T15:10:49.895Z,67.42
2022-12-18T15:13:25.443Z,67.11
2022-12-18T15:16:00.371Z,67.34
2022-12-18T15:18:43.680Z,67.44
2022-12-18T15:21:20.207Z,67.39
2022-12-18T15:23:54.604Z,67.48
2022-12-18T15:26:27.806Z,67.46
2022-12-18T15:29:02.778Z,68.09
2022-12-18T15:31:37.349Z,68.16
2022-12-18T15:34:21.704Z,67.59
2022-12-18T15:36:54.799Z,68.14
2022-12-18T15:39:28.947Z,68.03
2022-12-18T15:42:20.962Z,68.26
2022-12-18T15:44:53.661Z,68.13
2022-12-18T15:47:29.416Z,68.81
2022-12-18T15:50:04.301Z,68.51
2022-12-18T15:52:42.332Z,68.32
2022-12-18T15:55:34.614Z,68.20
2022-12-18T15:58:10.438Z,68.07
2022-12-18T16:00:43.730Z,68.47
2022-12-18T16:03:18.457Z,68.44
2022-12-18T16:05:52.720Z,67.79
2022-12-18T16:08:25.512Z,68.20
2022-12-18T16:10:58.994Z,68.38
2022-12-18T16:13:31.923Z,68.27
2022-12-18T16:16:04.950Z,68.60
2022-12-18T16:18:37.867Z,68.37
2022-12-18T16:21:12.474Z,68.53
2022-12-18T16:23:46.843Z,69.00
2022-12-18T16:26:19.837Z,68.66
2022-12-18T16:28:54.189Z,69.11
2022-12-18T16:31:27.139Z,68.66
2022-12-18T16:34:13.038Z,68.52
2022-12-18T16:36:47.587Z,69.10
2022-12-18T16:39:20.592Z,69.56
2022-12-18T16:41:53.615Z,69.17
2022-12-18T16:44:27.239Z,69.68
2022-12-18T16:47:02.925Z,70.13
2022-12-18T16:49:36.222Z,69.92
2022-12-18T16:52:11.035Z,69.81
2022-12-18T16:54:44.232Z,69.78
2022-12-18T16:57:18.937Z,69.98
2022-12-18T16:59:51.966Z,69.13
2022-12-18T17:02:27.368Z,69.54
2022-12-18T17:05:01.339Z,69.99
2022-12-18T17:07:36.196Z,69.97
2022-12-18T17:10:12.843Z,70.44
2022-12-18T17:12:45.690Z,70.05
2022-12-18T17:15:18.896Z,69.77
2022-12-18T17:17:52.902Z,69.72
2022-12-18T17:20:26.529Z,70.25
2022-12-18T17:23:01.292Z,70.15
2022-12-18T17:25:35.673Z,70.47
2022-12-18T17:28:08.575Z,69.53
2022-12-18T17:30:44.412Z,69.36
2022-12-18T17:33:17.253Z,69.77
2022-12-18T17:35:50.358Z,69.67
2022-12-18T17:38:24.771Z,69.88
2022-12-18T17:41:02.085Z,70.03
2022-12-18T17:43:36.231Z,69.83
2022-12-18T17:46:09.203Z,69.44
2022-12-18T17:48:42.904Z,69.87
2022-12-18T17:51:17.005Z,70.16
2022-12-18T17:53:51.583Z,69.93
2022-12-18T17:56:26.082Z,70.05
2022-12-18T17:59:00.561Z,69.99
2022-12-18T18:01:42.423Z,69.85
2022-12-18T18:04:17.346Z,69.96
2022-12-18T18:06:50.423Z,69.92
2022-12-18T18:09:27.270Z,69.93
2022-12-18T18:12:17.422Z,69.72
2022-12-18T18:14:50.656Z,69.71
2022-12-18T18:17:26.114Z,69.68
2022-12-18T18:19:58.989Z,69.74
2022-12-18T18:22:32.196Z,69.82
2022-12-18T18:25:10.707Z,70.11
2022-12-18T18:27:44.109Z,69.89
2022-12-18T18:30:20.029Z,69.75
2022-12-18T18:32:53.049Z,69.44
2022-12-18T18:35:52.957Z,69.62
2022-12-18T18:38:20.389Z,69.41
2022-12-18T18:41:00.705Z,69.10
2022-12-18T18:43:33.776Z,69.00
2022-12-18T18:46:07.576Z,69.14
2022-12-18T18:48:42.373Z,68.92
2022-12-18T18:51:21.100Z,69.26
2022-12-18T18:53:55.224Z,69.34
2022-12-18T18:59:23.613Z,69.38
2022-12-18T19:02:05.403Z,69.01
2022-12-18T19:04:45.695Z,69.68
2022-12-18T19:07:29.955Z,69.44
2022-12-18T19:10:05.407Z,69.66
2022-12-18T19:12:54.011Z,69.66
2022-12-18T19:15:26.948Z,69.70
2022-12-18T19:18:00.173Z,69.81
2022-12-18T19:20:33.341Z,69.86
2022-12-18T19:23:06.203Z,69.61
2022-12-18T19:25:41.641Z,69.49
2022-12-18T19:28:22.070Z,69.45
2022-12-18T19:30:59.324Z,69.58
2022-12-18T19:33:43.155Z,69.63
2022-12-18T19:36:21.227Z,69.78
2022-12-18T19:38:56.395Z,69.22
2022-12-18T19:41:31.133Z,69.33
2022-12-18T19:44:08.703Z,69.25
2022-12-18T19:46:42.436Z,69.03
2022-12-18T19:49:18.241Z,68.99
2022-12-18T19:51:51.612Z,69.00
2022-12-18T19:54:24.472Z,68.91
2022-12-18T19:57:00.861Z,68.99
2022-12-18T19:59:35.829Z,69.19
2022-12-18T20:02:14.359Z,68.73
2022-12-18T20:04:47.616Z,69.02
2022-12-18T20:07:20.434Z,69.25
2022-12-18T20:09:59.539Z,69.10
2022-12-18T20:12:36.995Z,69.25
2022-12-18T20:15:13.164Z,69.16
2022-12-18T20:17:46.051Z,69.36
2022-12-18T20:20:19.226Z,69.48
2022-12-18T20:22:52.339Z,69.33
2022-12-18T20:25:25.305Z,69.41
2022-12-18T20:27:58.501Z,69.29
2022-12-18T20:30:43.669Z,69.18
2022-12-18T20:33:16.890Z,68.97
2022-12-18T20:35:49.812Z,68.96
2022-12-18T20:38:23.575Z,68.90
2022-12-18T20:41:08.197Z,68.44
2022-12-18T20:43:41.353Z,68.29
2022-12-18T20:46:17.634Z,68.59
2022-12-18T20:48:51.029Z,68.67
2022-12-18T20:51:24.102Z,68.63
2022-12-18T20:53:59.587Z,68.40
2022-12-18T20:56:32.400Z,68.34
2022-12-18T20:59:05.593Z,68.53
2022-12-18T21:01:41.526Z,68.71
2022-12-18T21:04:22.865Z,68.75
2022-12-18T21:07:02.446Z,68.78
2022-12-18T21:09:38.119Z,68.71
2022-12-18T21:12:34.883Z,69.03
2022-12-18T21:15:13.384Z,69.34
2022-12-18T21:17:47.684Z,69.65
2022-12-18T21:20:20.601Z,69.50
2022-12-18T21:22:54.081Z,69.85
2022-12-18T21:25:30.507Z,69.55
2022-12-18T21:28:03.407Z,69.53
2022-12-18T21:30:36.557Z,69.65
2022-12-18T21:33:10.901Z,69.49
2022-12-18T21:35:43.745Z,69.32
2022-12-18T21:38:17.032Z,69.51
2022-12-18T21:40:50.080Z,69.29
2022-12-18T21:43:40.744Z,69.41
2022-12-18T21:46:14.014Z,69.76
2022-12-18T21:48:48.378Z,69.49
2022-12-18T21:51:21.367Z,69.52
2022-12-18T21:53:54.208Z,69.45
2022-12-18T21:56:43.370Z,69.55
2022-12-18T21:59:18.397Z,69.49
2022-12-18T22:01:52.918Z,69.64
2022-12-18T22:04:27.887Z,69.62
2022-12-18T22:07:02.593Z,69.76
2022-12-18T22:09:35.624Z,69.63
2022-12-18T22:12:09.250Z,69.66
2022-12-18T22:14:42.082Z,69.73
2022-12-18T22:17:14.991Z,70.27
2022-12-18T22:19:51.174Z,69.66
2022-12-18T22:22:24.028Z,69.78
2022-12-18T22:24:56.988Z,69.79
2022-12-18T22:27:29.801Z,69.52
2022-12-18T22:30:04.845Z,69.62
2022-12-18T22:32:37.689Z,69.61
2022-12-18T22:35:15.781Z,69.50
2022-12-18T22:37:48.860Z,69.46
2022-12-18T22:40:25.395Z,69.60
2022-12-18T22:42:58.844Z,69.59
2022-12-18T22:45:31.716Z,69.33
2022-12-18T22:48:07.392Z,69.44
2022-12-18T22:50:41.995Z,69.40
2022-12-18T22:53:15.086Z,69.49
2022-12-18T22:55:48.029Z,69.25
2022-12-18T22:58:20.848Z,69.50
2022-12-18T23:00:53.742Z,69.69
2022-12-18T23:03:26.845Z,69.59
2022-12-18T23:06:05.999Z,69.38
2022-12-18T23:08:38.823Z,69.65
2022-12-18T23:11:12.664Z,69.62
2022-12-18T23:13:46.485Z,69.68
2022-12-18T23:16:21.054Z,69.45
2022-12-18T23:18:56.571Z,69.21
2022-12-18T23:21:30.897Z,69.26
2022-12-18T23:24:05.440Z,69.32
2022-12-18T23:26:38.914Z,69.10
2022-12-18T23:29:11.696Z,69.27
2022-12-18T23:31:44.808Z,69.20
2022-12-18T23:34:18.134Z,69.20
2022-12-18T23:36:56.015Z,69.10
2022-12-18T23:39:30.385Z,69.48
2022-12-18T23:42:04.707Z,69.38
2022-12-18T23:44:39.014Z,69.46
2022-12-18T23:47:12.138Z,69.80
2022-12-18T23:49:45.067Z,69.43
2022-12-18T23:52:19.261Z,69.64
2022-12-18T23:54:53.653Z,69.62
2022-12-18T23:57:26.515Z,69.43
